KMWH

Grant Co International Airport

Moses Lake, Washington, USA
METAR KMWH 200052Z 19005KT 10SM FEW100 06/00 A2991 RMK AO2 SLP137 T00610000
Observed Flight Rules
Jan-20 @ 00:52 UTC (29 minutes ago) Visual Flight Rules
Wind Visibility Clouds
190° at 5 knots 10 miles
  • Few at 10,000' AGL
Temperatures Readings
Current 6°C / 43°F
Dewpoint 0°C / 32°F
Humidity 66%
Altimeter 29.91" Hg
Pressure 1013.7 hPa
Elevation 362
METAR KMWH 200052Z 19005KT 10SM FEW100 06/00 A2991 RMK AO2 SLP137 T00610000
Observed Flight Rules
Jan-20 @ 00:52 UTC
(29 minutes ago)
VFR
Wind Visibility
190° at 5 knots 10 miles
Clouds
  • Few at 10,000' AGL
Temperature Dewpoint
6°C / 43°F 0°C / 32°F
Humidity Altimeter Pressure
66% 29.91" Hg 1013.7 hPa